createdAt,value
2023-01-01T00:01:27.305Z,164.93
2023-01-01T00:03:56.379Z,169.07
2023-01-01T00:06:23.795Z,140.82
2023-01-01T00:09:11.086Z,107.25
2023-01-01T00:11:37.780Z,106.85
2023-01-01T00:14:11.871Z,107.72
2023-01-01T00:16:39.248Z,112.40
2023-01-01T00:19:06.027Z,113.00
2023-01-01T00:21:32.689Z,113.25
2023-01-01T00:23:59.396Z,115.05
2023-01-01T00:26:29.507Z,120.05
2023-01-01T00:29:01.383Z,117.57
2023-01-01T00:31:28.101Z,119.60
2023-01-01T00:33:56.061Z,115.35
2023-01-01T00:36:24.447Z,105.18
2023-01-01T00:38:51.591Z,109.65
2023-01-01T00:41:18.756Z,102.65
2023-01-01T00:43:46.098Z,104.22
2023-01-01T00:46:13.586Z,100.38
2023-01-01T00:48:40.459Z,93.63
2023-01-01T00:51:08.019Z,90.53
2023-01-01T00:53:34.838Z,86.47
2023-01-01T00:56:01.543Z,84.65
2023-01-01T00:58:28.607Z,90.97
2023-01-01T01:00:55.304Z,92.53
2023-01-01T01:03:30.432Z,90.00
2023-01-01T01:06:00.163Z,88.47
2023-01-01T01:08:30.928Z,87.75
2023-01-01T01:11:07.157Z,88.55
2023-01-01T01:13:33.788Z,88.40
2023-01-01T01:16:00.756Z,87.90
2023-01-01T01:18:27.458Z,91.50
2023-01-01T01:20:54.876Z,92.20
2023-01-01T01:23:21.655Z,90.40
2023-01-01T01:25:48.383Z,89.70
2023-01-01T01:28:15.706Z,91.35
2023-01-01T01:30:42.394Z,93.15
2023-01-01T01:33:09.302Z,100.07
2023-01-01T01:35:36.150Z,86.60
2023-01-01T01:38:02.864Z,80.97
2023-01-01T01:40:29.631Z,82.65
2023-01-01T01:42:56.339Z,84.88
2023-01-01T01:45:27.002Z,84.47
2023-01-01T01:47:59.149Z,87.00
2023-01-01T01:50:31.213Z,79.30
2023-01-01T01:53:08.080Z,79.85
2023-01-01T01:55:39.744Z,75.32
2023-01-01T01:58:10.180Z,77.00
2023-01-01T02:00:37.025Z,78.93
2023-01-01T02:03:08.379Z,73.07
2023-01-01T02:05:36.095Z,71.45
2023-01-01T02:08:05.279Z,75.20
2023-01-01T02:10:32.725Z,68.60
2023-01-01T02:12:59.577Z,73.85
2023-01-01T02:15:31.292Z,77.28
2023-01-01T02:18:18.531Z,70.70
2023-01-01T02:21:00.853Z,78.43
2023-01-01T02:23:43.263Z,67.70
2023-01-01T02:26:45.137Z,67.82
2023-01-01T02:29:25.672Z,59.75
2023-01-01T02:32:13.676Z,61.05
2023-01-01T02:34:46.920Z,56.78
2023-01-01T02:37:17.316Z,56.97
2023-01-01T02:39:51.573Z,55.88
2023-01-01T02:42:19.697Z,53.83
2023-01-01T02:44:49.889Z,52.90
2023-01-01T02:47:20.080Z,51.17
2023-01-01T02:49:54.949Z,60.33
2023-01-01T02:52:52.183Z,64.70
2023-01-01T02:55:42.763Z,64.68
2023-01-01T02:58:38.368Z,67.93
2023-01-01T03:01:38.892Z,69.50
2023-01-01T03:04:15.180Z,70.60
2023-01-01T03:06:55.857Z,71.68
2023-01-01T03:09:41.834Z,71.90
2023-01-01T03:12:39.688Z,72.03
2023-01-01T03:15:26.207Z,70.03
2023-01-01T03:17:53.835Z,70.85
2023-01-01T03:20:24.942Z,68.25
2023-01-01T03:22:55.343Z,66.85
2023-01-01T03:25:28.139Z,63.83
2023-01-01T03:28:01.957Z,66.60
2023-01-01T03:30:31.103Z,67.53
2023-01-01T03:33:06.012Z,67.90
2023-01-01T03:35:36.998Z,69.10
2023-01-01T03:38:09.187Z,69.50
2023-01-01T03:40:38.483Z,67.70
2023-01-01T03:43:12.876Z,64.65
2023-01-01T03:45:44.753Z,62.08
2023-01-01T03:48:12.401Z,60.95
2023-01-01T03:50:54.297Z,60.88
2023-01-01T03:53:33.188Z,59.95
2023-01-01T03:56:07.511Z,56.83
2023-01-01T03:58:41.186Z,58.42
2023-01-01T04:01:15.752Z,55.85
2023-01-01T04:03:42.946Z,55.90
2023-01-01T04:06:11.929Z,57.75
2023-01-01T04:08:39.218Z,56.50
2023-01-01T04:11:32.159Z,58.22
2023-01-01T04:13:58.876Z,55.45
2023-01-01T04:16:25.626Z,53.95
2023-01-01T04:18:52.247Z,54.75
2023-01-01T04:21:18.877Z,54.42
2023-01-01T04:23:45.476Z,56.15
2023-01-01T04:26:14.550Z,55.13
2023-01-01T04:28:42.386Z,50.83
2023-01-01T04:31:11.687Z,50.22
2023-01-01T04:33:38.427Z,53.75
2023-01-01T04:36:07.586Z,56.50
2023-01-01T04:38:35.863Z,54.65
2023-01-01T04:41:03.523Z,54.85
2023-01-01T04:43:31.255Z,72.75
2023-01-01T04:45:59.238Z,74.82
2023-01-01T04:48:26.872Z,77.60
2023-01-01T04:51:04.000Z,77.28
2023-01-01T04:53:33.192Z,74.15
2023-01-01T04:56:05.533Z,78.00
2023-01-01T04:58:33.339Z,79.57
2023-01-01T05:01:00.251Z,78.95
2023-01-01T05:03:27.116Z,79.63
2023-01-01T05:06:06.223Z,82.03
2023-01-01T05:08:34.944Z,78.35
2023-01-01T05:11:03.641Z,77.22
2023-01-01T05:13:30.300Z,79.30
2023-01-01T05:15:57.477Z,75.97
2023-01-01T05:18:24.091Z,80.97
2023-01-01T05:20:50.757Z,79.25
2023-01-01T05:23:18.777Z,80.57
2023-01-01T05:25:45.382Z,77.45
2023-01-01T05:28:11.993Z,78.97
2023-01-01T05:30:40.767Z,79.65
2023-01-01T05:33:07.532Z,79.57
2023-01-01T05:35:34.341Z,86.75
2023-01-01T05:38:01.006Z,76.35
2023-01-01T05:40:27.642Z,80.32
2023-01-01T05:42:54.314Z,81.35
2023-01-01T05:45:20.937Z,79.47
2023-01-01T05:47:47.721Z,83.03
2023-01-01T05:50:14.492Z,80.00
2023-01-01T05:52:41.194Z,74.50
2023-01-01T05:55:08.228Z,80.85
2023-01-01T05:57:34.830Z,76.03
2023-01-01T06:00:01.613Z,73.85
2023-01-01T06:02:31.349Z,79.97
2023-01-01T06:04:58.089Z,72.47
2023-01-01T06:07:24.718Z,75.38
2023-01-01T06:09:51.373Z,76.20
2023-01-01T06:12:17.968Z,75.80
2023-01-01T06:14:44.661Z,74.75
2023-01-01T06:17:11.254Z,68.85
2023-01-01T06:19:37.871Z,67.60
2023-01-01T06:22:05.758Z,66.82
2023-01-01T06:24:37.103Z,65.80
2023-01-01T06:27:07.007Z,65.00
2023-01-01T06:29:33.728Z,66.72
2023-01-01T06:32:00.376Z,61.83
2023-01-01T06:34:27.209Z,62.40
2023-01-01T06:36:53.856Z,61.10
2023-01-01T06:39:20.447Z,63.03
2023-01-01T06:41:47.090Z,63.90
2023-01-01T06:44:13.685Z,64.25
2023-01-01T06:46:40.339Z,63.05
2023-01-01T06:49:11.589Z,61.47
2023-01-01T06:51:40.706Z,61.88
2023-01-01T06:54:08.105Z,62.63
2023-01-01T06:56:35.555Z,58.20
2023-01-01T06:59:02.673Z,61.58
2023-01-01T07:01:35.884Z,60.35
2023-01-01T07:04:08.396Z,63.08
2023-01-01T07:06:35.643Z,63.70
2023-01-01T07:09:02.720Z,63.25
2023-01-01T07:11:29.645Z,56.80
2023-01-01T07:13:56.376Z,64.78
2023-01-01T07:16:23.907Z,59.85
2023-01-01T07:18:51.718Z,64.05
2023-01-01T07:21:43.440Z,59.25
2023-01-01T07:24:12.799Z,61.72
2023-01-01T07:26:40.990Z,55.42
2023-01-01T07:29:08.970Z,54.10
2023-01-01T07:31:37.711Z,58.47
2023-01-01T07:34:06.158Z,62.75
2023-01-01T07:36:33.067Z,62.88
2023-01-01T07:38:59.768Z,57.85
2023-01-01T07:41:26.377Z,62.10
2023-01-01T07:43:52.992Z,55.83
2023-01-01T07:46:19.788Z,57.25
2023-01-01T07:48:46.700Z,58.53
2023-01-01T07:51:13.627Z,57.00
2023-01-01T07:53:40.289Z,62.88
2023-01-01T07:56:07.850Z,59.08
2023-01-01T07:58:34.458Z,60.58
2023-01-01T08:01:01.175Z,59.78
2023-01-01T08:03:27.994Z,64.55
2023-01-01T08:05:54.683Z,64.07
2023-01-01T08:08:21.352Z,63.03
2023-01-01T08:10:47.999Z,62.15
2023-01-01T08:13:14.604Z,63.03
2023-01-01T08:15:41.310Z,61.10
2023-01-01T08:18:08.043Z,57.47
2023-01-01T08:20:34.859Z,60.08
2023-01-01T08:23:06.684Z,58.00
2023-01-01T08:25:34.501Z,58.20
2023-01-01T08:28:01.110Z,55.33
2023-01-01T08:30:27.909Z,56.03
2023-01-01T08:32:54.799Z,56.63
2023-01-01T08:35:21.519Z,56.97
2023-01-01T08:37:48.217Z,58.25
2023-01-01T08:40:15.830Z,59.50
2023-01-01T08:42:42.480Z,54.85
2023-01-01T08:45:09.496Z,55.55
2023-01-01T08:47:36.134Z,53.08
2023-01-01T08:50:02.795Z,54.45
2023-01-01T08:52:29.575Z,52.95
2023-01-01T08:54:56.179Z,57.08
2023-01-01T08:57:22.854Z,64.72
2023-01-01T08:59:49.571Z,62.00
2023-01-01T09:02:16.660Z,59.65
2023-01-01T09:04:43.539Z,58.58
2023-01-01T09:07:10.138Z,61.40
2023-01-01T09:09:36.779Z,59.47
2023-01-01T09:12:06.224Z,61.13
2023-01-01T09:14:34.370Z,59.10
2023-01-01T09:17:01.800Z,66.28
2023-01-01T09:19:28.585Z,64.70
2023-01-01T09:21:55.823Z,62.08
2023-01-01T09:24:22.893Z,65.82
2023-01-01T09:26:50.063Z,66.05
2023-01-01T09:29:20.417Z,69.68
2023-01-01T09:31:48.043Z,74.70
2023-01-01T09:34:14.969Z,76.57
2023-01-01T09:36:41.798Z,68.35
2023-01-01T09:39:12.875Z,67.70
2023-01-01T09:41:54.474Z,69.38
2023-01-01T09:44:57.350Z,68.03
2023-01-01T09:47:32.835Z,67.45
2023-01-01T09:50:08.566Z,68.32
2023-01-01T09:52:44.135Z,76.63
2023-01-01T09:55:25.820Z,75.22
2023-01-01T09:57:54.394Z,76.15
2023-01-01T10:00:21.418Z,76.88
2023-01-01T10:03:18.821Z,73.90
2023-01-01T10:06:01.716Z,72.65
2023-01-01T10:08:58.430Z,72.03
2023-01-01T10:11:30.793Z,67.65
2023-01-01T10:14:01.055Z,68.13
2023-01-01T10:16:45.888Z,66.68
2023-01-01T10:19:27.778Z,65.95
2023-01-01T10:21:58.888Z,61.42
2023-01-01T10:24:45.272Z,69.35
2023-01-01T10:27:29.502Z,71.15
2023-01-01T10:30:03.437Z,66.28
2023-01-01T10:32:34.762Z,68.88
2023-01-01T10:35:03.744Z,72.22
2023-01-01T10:37:35.975Z,76.05
2023-01-01T10:40:13.749Z,76.10
2023-01-01T10:42:40.422Z,79.85
2023-01-01T10:45:14.656Z,80.70
2023-01-01T10:48:16.715Z,79.80
2023-01-01T10:50:50.050Z,82.05
2023-01-01T10:53:25.173Z,81.22
2023-01-01T10:56:02.608Z,81.07
2023-01-01T10:58:51.964Z,81.93
2023-01-01T11:01:18.707Z,75.35
2023-01-01T11:04:04.055Z,73.68
2023-01-01T11:06:47.285Z,70.50
2023-01-01T11:09:26.595Z,68.95
2023-01-01T11:12:09.549Z,64.32
2023-01-01T11:14:49.169Z,62.67
2023-01-01T11:17:26.391Z,62.83
2023-01-01T11:19:59.807Z,59.80
2023-01-01T11:22:46.863Z,57.28
2023-01-01T11:25:21.103Z,58.65
2023-01-01T11:27:49.164Z,58.53
2023-01-01T11:30:22.457Z,57.67
2023-01-01T11:32:55.435Z,56.58
2023-01-01T11:35:26.131Z,54.38
2023-01-01T11:37:55.006Z,53.72
2023-01-01T11:40:29.554Z,56.45
2023-01-01T11:43:01.265Z,54.58
2023-01-01T11:45:37.788Z,57.72
2023-01-01T11:48:13.743Z,55.50
2023-01-01T11:50:53.662Z,54.03
2023-01-01T11:53:31.966Z,53.17
2023-01-01T11:56:16.480Z,55.30
2023-01-01T11:59:00.213Z,53.90
2023-01-01T12:01:43.225Z,54.47
2023-01-01T12:04:26.152Z,51.72
2023-01-01T12:07:00.049Z,49.03
2023-01-01T12:09:46.769Z,51.88
2023-01-01T12:12:19.355Z,46.90
2023-01-01T12:15:07.256Z,46.30
2023-01-01T12:17:41.185Z,46.95
2023-01-01T12:20:29.888Z,46.45
2023-01-01T12:23:00.845Z,47.47
2023-01-01T12:25:38.711Z,42.13
2023-01-01T12:28:26.068Z,42.03
2023-01-01T12:31:23.245Z,37.88
2023-01-01T12:33:57.019Z,35.30
2023-01-01T12:36:44.087Z,34.60
2023-01-01T12:39:46.032Z,33.50
2023-01-01T12:42:35.077Z,31.85
2023-01-01T12:45:14.099Z,30.35
2023-01-01T12:47:55.301Z,29.98
2023-01-01T12:50:34.837Z,29.38
2023-01-01T12:53:38.388Z,30.70
2023-01-01T12:56:10.027Z,29.70
2023-01-01T12:58:54.998Z,32.08
2023-01-01T13:01:28.469Z,32.97
2023-01-01T13:04:02.615Z,33.33
2023-01-01T13:06:36.604Z,35.63
2023-01-01T13:09:10.936Z,33.13
2023-01-01T13:11:44.907Z,33.47
2023-01-01T13:14:12.685Z,31.17
2023-01-01T13:16:42.394Z,30.30
2023-01-01T13:19:25.601Z,27.67
2023-01-01T13:21:52.512Z,25.38
2023-01-01T13:24:22.585Z,25.35
2023-01-01T13:26:50.238Z,24.45
2023-01-01T13:29:32.410Z,26.25
2023-01-01T13:32:02.120Z,26.98
2023-01-01T13:34:37.809Z,27.17
2023-01-01T13:37:24.327Z,26.58
2023-01-01T13:40:06.767Z,25.77
2023-01-01T13:42:40.093Z,25.40
2023-01-01T13:45:44.206Z,25.63
2023-01-01T13:48:41.244Z,24.48
2023-01-01T13:52:02.944Z,24.73
2023-01-01T13:54:41.607Z,24.13
2023-01-01T13:57:42.290Z,24.80
2023-01-01T14:00:25.592Z,25.08
2023-01-01T14:03:00.549Z,22.75
2023-01-01T14:05:33.555Z,21.65
2023-01-01T14:08:00.444Z,22.77
2023-01-01T14:10:32.998Z,20.58
2023-01-01T14:13:17.289Z,21.40
2023-01-01T14:16:02.131Z,20.15
2023-01-01T14:18:38.494Z,18.75
2023-01-01T14:21:11.406Z,28.17
2023-01-01T14:23:43.871Z,40.90
2023-01-01T14:26:14.868Z,49.63
2023-01-01T14:28:42.452Z,53.00
2023-01-01T14:31:13.792Z,50.67
2023-01-01T14:33:40.580Z,49.00
2023-01-01T14:36:16.064Z,45.53
2023-01-01T14:38:45.377Z,45.55
2023-01-01T14:41:31.202Z,44.05
2023-01-01T14:44:04.688Z,41.50
2023-01-01T14:46:31.901Z,43.92
2023-01-01T14:49:03.185Z,40.92
2023-01-01T14:51:31.948Z,40.90
2023-01-01T14:54:01.869Z,37.50
2023-01-01T14:56:30.329Z,36.25
2023-01-01T14:59:12.278Z,34.65
2023-01-01T15:01:42.631Z,34.05
2023-01-01T15:04:20.358Z,33.22
2023-01-01T15:06:56.908Z,29.77
2023-01-01T15:09:24.269Z,29.42
2023-01-01T15:11:54.300Z,31.83
2023-01-01T15:14:37.832Z,32.22
2023-01-01T15:17:08.375Z,27.58
2023-01-01T15:19:36.766Z,27.00
2023-01-01T15:22:19.718Z,27.88
2023-01-01T15:24:46.558Z,27.75
2023-01-01T15:27:30.149Z,28.63
2023-01-01T15:29:57.777Z,28.02
2023-01-01T15:32:28.656Z,26.85
2023-01-01T15:34:57.698Z,25.35
2023-01-01T15:37:45.248Z,23.85
2023-01-01T15:40:12.909Z,24.75
2023-01-01T15:42:49.279Z,24.42
2023-01-01T15:47:47.450Z,23.48
2023-01-01T15:50:26.020Z,22.40
2023-01-01T15:52:59.152Z,23.63
2023-01-01T15:55:28.183Z,22.70
2023-01-01T15:57:55.647Z,21.38
2023-01-01T16:00:26.247Z,20.27
2023-01-01T16:02:58.159Z,23.15
2023-01-01T16:05:26.972Z,20.92
2023-01-01T16:08:10.616Z,23.52
2023-01-01T16:10:37.320Z,21.17
2023-01-01T16:13:04.113Z,22.42
2023-01-01T16:15:30.769Z,21.30
2023-01-01T16:17:57.478Z,22.45
2023-01-01T16:20:25.400Z,22.52
2023-01-01T16:22:52.271Z,22.38
2023-01-01T16:25:21.742Z,20.88
2023-01-01T16:27:48.824Z,20.42
2023-01-01T16:30:15.649Z,22.70
2023-01-01T16:32:42.540Z,20.38
2023-01-01T16:35:13.772Z,19.67
2023-01-01T16:37:40.412Z,19.77
2023-01-01T16:40:09.410Z,18.60
2023-01-01T16:42:36.318Z,19.45
2023-01-01T16:45:03.375Z,18.73
2023-01-01T16:47:30.016Z,18.92
2023-01-01T16:49:56.751Z,19.52
2023-01-01T16:52:23.390Z,18.48
2023-01-01T16:54:50.153Z,19.20
2023-01-01T16:57:16.779Z,18.50
2023-01-01T16:59:43.444Z,20.20
2023-01-01T17:02:11.350Z,19.85
2023-01-01T17:04:38.145Z,21.27
2023-01-01T17:07:04.789Z,23.33
2023-01-01T17:09:31.458Z,23.42
2023-01-01T17:11:58.058Z,22.50
2023-01-01T17:14:24.872Z,21.80
2023-01-01T17:16:55.304Z,23.65
2023-01-01T17:19:22.246Z,22.63
2023-01-01T17:21:49.016Z,20.63
2023-01-01T17:24:17.143Z,22.42
2023-01-01T17:26:44.258Z,23.50
2023-01-01T17:29:12.070Z,21.92
2023-01-01T17:31:38.957Z,21.00
2023-01-01T17:34:05.636Z,23.05
2023-01-01T17:36:32.442Z,23.55
2023-01-01T17:38:59.221Z,23.85
2023-01-01T17:41:26.000Z,23.42
2023-01-01T17:43:52.968Z,20.02
2023-01-01T17:46:22.292Z,20.90
2023-01-01T17:48:49.806Z,20.38
2023-01-01T17:51:17.716Z,20.10
2023-01-01T17:53:44.847Z,21.10
2023-01-01T17:56:15.300Z,21.92
2023-01-01T17:58:43.868Z,21.77
2023-01-01T18:01:25.911Z,24.30
2023-01-01T18:03:55.578Z,23.13
2023-01-01T18:06:22.398Z,23.15
2023-01-01T18:08:53.861Z,22.27
2023-01-01T18:11:20.533Z,22.83
2023-01-01T18:13:47.304Z,23.08
2023-01-01T18:16:13.989Z,22.20
2023-01-01T18:18:40.970Z,19.00
2023-01-01T18:21:12.337Z,22.05
2023-01-01T18:23:39.997Z,21.48
2023-01-01T18:26:09.897Z,20.33
2023-01-01T18:28:37.570Z,26.02
2023-01-01T18:31:14.681Z,29.42
2023-01-01T18:33:41.917Z,28.05
2023-01-01T18:36:12.410Z,28.02
2023-01-01T18:38:40.386Z,28.02
2023-01-01T18:41:26.979Z,28.75
2023-01-01T18:43:54.240Z,28.63
2023-01-01T18:46:23.427Z,29.42
2023-01-01T18:48:55.392Z,31.13
2023-01-01T18:51:25.948Z,27.80
2023-01-01T18:53:58.391Z,29.08
2023-01-01T18:56:25.627Z,30.48
2023-01-01T18:58:56.294Z,28.58
2023-01-01T19:01:24.239Z,28.77
2023-01-01T19:03:54.812Z,29.42
2023-01-01T19:06:27.319Z,29.90
2023-01-01T19:09:25.322Z,29.00
2023-01-01T19:11:54.584Z,26.58
2023-01-01T19:14:23.520Z,27.85
2023-01-01T19:16:55.140Z,27.40
2023-01-01T19:19:24.531Z,30.45
2023-01-01T19:21:54.726Z,29.63
2023-01-01T19:24:24.627Z,30.60
2023-01-01T19:27:16.050Z,31.02
2023-01-01T19:29:44.959Z,26.75
2023-01-01T19:32:11.984Z,23.98
2023-01-01T19:34:39.833Z,25.60
2023-01-01T19:37:07.657Z,27.55
2023-01-01T19:39:35.234Z,29.80
2023-01-01T19:42:05.148Z,30.45
2023-01-01T19:44:32.097Z,30.35
2023-01-01T19:47:00.596Z,31.90
2023-01-01T19:49:28.238Z,29.83
2023-01-01T19:51:54.922Z,29.27
2023-01-01T19:54:21.649Z,26.83
2023-01-01T19:56:49.994Z,26.08
2023-01-01T19:59:16.879Z,29.02
2023-01-01T20:01:43.708Z,30.85
2023-01-01T20:04:10.584Z,27.88
2023-01-01T20:06:37.887Z,30.25
2023-01-01T20:09:04.656Z,29.38
2023-01-01T20:11:32.202Z,27.02
2023-01-01T20:13:59.205Z,27.17
2023-01-01T20:16:25.984Z,29.60
2023-01-01T20:18:52.867Z,28.75
2023-01-01T20:21:34.761Z,30.52
2023-01-01T20:24:01.615Z,36.13
2023-01-01T20:26:28.292Z,34.13
2023-01-01T20:29:10.235Z,32.70
2023-01-01T20:31:37.367Z,35.03
2023-01-01T20:34:04.288Z,33.00
2023-01-01T20:36:46.402Z,33.65
2023-01-01T20:39:14.147Z,32.75
2023-01-01T20:41:40.892Z,31.63
2023-01-01T20:44:07.575Z,32.53
2023-01-01T20:46:35.230Z,40.60
2023-01-01T20:49:01.965Z,41.22
2023-01-01T20:51:28.674Z,41.63
2023-01-01T20:53:55.988Z,42.97
2023-01-01T20:56:22.754Z,40.72
2023-01-01T20:58:54.525Z,41.40
2023-01-01T21:01:24.414Z,38.83
2023-01-01T21:03:51.097Z,41.88
2023-01-01T21:06:23.741Z,42.08
2023-01-01T21:08:51.371Z,39.30
2023-01-01T21:11:18.173Z,41.13
2023-01-01T21:13:45.542Z,42.10
2023-01-01T21:16:16.698Z,39.20
2023-01-01T21:18:43.927Z,38.25
2023-01-01T21:21:19.224Z,40.08
2023-01-01T21:23:46.144Z,37.55
2023-01-01T21:26:19.277Z,40.95
2023-01-01T21:28:47.326Z,41.47
2023-01-01T21:31:15.495Z,39.30
2023-01-01T21:33:44.615Z,39.53
2023-01-01T21:36:15.804Z,39.80
2023-01-01T21:38:42.624Z,35.20
2023-01-01T21:41:28.799Z,35.05
2023-01-01T21:43:57.958Z,38.47
2023-01-01T21:46:24.742Z,35.13
2023-01-01T21:48:58.119Z,36.88
2023-01-01T21:51:28.628Z,37.20
2023-01-01T21:54:17.417Z,36.03
2023-01-01T21:56:52.899Z,34.35
2023-01-01T21:59:32.169Z,34.27
2023-01-01T22:02:31.199Z,34.97
2023-01-01T22:05:00.258Z,33.88
2023-01-01T22:10:22.616Z,36.58
2023-01-01T22:12:57.864Z,36.53
2023-01-01T22:15:25.735Z,37.53
2023-01-01T22:18:12.324Z,35.53
2023-01-01T22:20:40.569Z,35.75
2023-01-01T22:23:24.389Z,37.47
2023-01-01T22:25:52.594Z,38.20
2023-01-01T22:28:23.533Z,39.20
2023-01-01T22:30:55.306Z,37.85
2023-01-01T22:33:27.963Z,40.00
2023-01-01T22:35:57.309Z,38.75
2023-01-01T22:38:32.447Z,38.05
2023-01-01T22:40:59.834Z,39.42
2023-01-01T22:43:33.491Z,38.05
2023-01-01T22:46:10.671Z,38.25
2023-01-01T22:48:38.806Z,36.95
2023-01-01T22:51:11.940Z,38.25
2023-01-01T22:53:38.642Z,35.47
2023-01-01T22:56:05.597Z,36.10
2023-01-01T22:58:32.295Z,35.72
2023-01-01T23:00:59.096Z,36.88
2023-01-01T23:03:25.891Z,34.58
2023-01-01T23:05:54.278Z,35.63
2023-01-01T23:08:25.371Z,35.33
2023-01-01T23:10:56.611Z,35.00
2023-01-01T23:13:39.033Z,33.55
2023-01-01T23:16:05.782Z,34.40
2023-01-01T23:18:34.958Z,33.70
2023-01-01T23:21:05.328Z,35.90
2023-01-01T23:23:32.623Z,35.53
2023-01-01T23:26:00.782Z,34.58
2023-01-01T23:28:30.215Z,34.08
2023-01-01T23:30:58.674Z,32.85
2023-01-01T23:33:25.580Z,33.05
2023-01-01T23:35:52.987Z,32.28
2023-01-01T23:38:20.900Z,32.47
2023-01-01T23:40:47.576Z,32.78
2023-01-01T23:43:14.286Z,32.63
2023-01-01T23:45:41.372Z,34.90
2023-01-01T23:48:08.324Z,33.53
2023-01-01T23:50:35.159Z,32.60
2023-01-01T23:53:02.006Z,34.97
2023-01-01T23:55:28.695Z,33.70
2023-01-01T23:57:55.379Z,35.25
